PWSweather.com
Personal Weather Stations
Station Observations
KCTHAMDEN
Dunbar Hill, Hamden, CT 06514

Dunbar HillHamden, CT 06514

Lat: 41.365437, Lon: -72.956532

Elevation: 200

Station Type: Davis Vantage Pro2+

Latest ConditionsUpdated 12:45:02 PM EDT Friday, May 25, 2018
Currently Today's Max Today's Min Today's Average
Temperature 85.9°F29.9°C 85.9°F29.9°C 49.0°F9.4°C 60.9°F16.1°C
Dew Point 58.8°F14.9°C 65.2°F18.4°C 47.3°F8.5°C 53.6°F12.0°C
Winds 2.5 mph SSE4.0 kmh SSE 4.3 mph WSW6.9 kmh WSW - 0.6 mph 1.0 kmh
Wind Gusts 4.0 mph6.4 kmh 13.0 mph20.9 kmh - -
Humidity 40% 97% 36% 81%
Pressure 29.91 in1012.9 mb 30.09 in1019.0 mb 29.91 in1012.9 mb -
Hour Temp Dew Point Humidity Winds Wind Gusts Pressure Precip Precip Rate Daily Precip Total
12:45 PM 85.9°F29.9°C 58.8°F14.9°C 40% 2.5 mph SSE4.0 kmh SSE 4.0 mph6.4 kmh 29.91 in1012.9 mb - 0.00 in0.0 mm 0.00 in0.0 mm
12:30 PM 85.5°F29.7°C 55.5°F13.1°C 36% 4.3 mph WSW6.9 kmh WSW 13.0 mph20.9 kmh 29.92 in1013.2 mb - 0.00 in0.0 mm 0.00 in0.0 mm
12:15 PM 84.8°F29.3°C 58.5°F14.7°C 41% 3.3 mph SW5.3 kmh SW 6.0 mph9.7 kmh 29.92 in1013.2 mb - 0.00 in0.0 mm 0.00 in0.0 mm
12:00 PM 83.9°F28.8°C 59.7°F15.4°C 44% 0.4 mph ENE0.6 kmh ENE 2.0 mph3.2 kmh 29.93 in1013.5 mb - 0.00 in0.0 mm 0.00 in0.0 mm
11:45 AM 83.9°F28.8°C 58.3°F14.6°C 42% 0.9 mph SW1.4 kmh SW 3.0 mph4.8 kmh 29.94 in1013.9 mb - 0.00 in0.0 mm 0.00 in0.0 mm
11:30 AM 84.1°F28.9°C 64.5°F18.1°C 52% 2.3 mph SSE3.7 kmh SSE 3.0 mph4.8 kmh 29.95 in1014.2 mb - 0.00 in0.0 mm 0.00 in0.0 mm
11:15 AM 83.1°F28.4°C 63.1°F17.3°C 51% 0.8 mph S1.3 kmh S 2.0 mph3.2 kmh 29.95 in1014.2 mb - 0.00 in0.0 mm 0.00 in0.0 mm
11:00 AM 82.6°F28.1°C 60.4°F15.8°C 47% 2.0 mph SE3.2 kmh SE 3.0 mph4.8 kmh 29.96 in1014.6 mb - 0.00 in0.0 mm 0.00 in0.0 mm
10:45 AM 81.9°F27.7°C 62.5°F16.9°C 52% 3.0 mph S4.8 kmh S 5.0 mph8.0 kmh 29.97 in1014.9 mb - 0.00 in0.0 mm 0.00 in0.0 mm
10:30 AM 80.4°F26.9°C 65.2°F18.4°C 60% 1.6 mph SE2.6 kmh SE 4.0 mph6.4 kmh 29.97 in1014.9 mb - 0.00 in0.0 mm 0.00 in0.0 mm
10:15 AM 79.1°F26.2°C 63.0°F17.2°C 58% 1.8 mph S2.9 kmh S 4.0 mph6.4 kmh 29.98 in1015.2 mb - 0.00 in0.0 mm 0.00 in0.0 mm
10:00 AM 77.6°F25.3°C 62.6°F17.0°C 60% 2.0 mph SE3.2 kmh SE 2.0 mph3.2 kmh 29.98 in1015.2 mb - 0.00 in0.0 mm 0.00 in0.0 mm
09:45 AM 75.8°F24.3°C 64.1°F17.8°C 67% 1.6 mph SSE2.6 kmh SSE 4.0 mph6.4 kmh 29.99 in1015.6 mb - 0.00 in0.0 mm 0.00 in0.0 mm
09:30 AM 74.1°F23.4°C 63.7°F17.6°C 70% 0.5 mph S0.8 kmh S 1.0 mph1.6 kmh 30.00 in1015.9 mb - 0.00 in0.0 mm 0.00 in0.0 mm
09:15 AM 71.9°F22.2°C 61.2°F16.2°C 69% 1.2 mph S1.9 kmh S 2.0 mph3.2 kmh 30.00 in1015.9 mb - 0.00 in0.0 mm 0.00 in0.0 mm
09:00 AM 69.9°F21.1°C 61.2°F16.2°C 74% 1.0 mph SSE1.6 kmh SSE 2.0 mph3.2 kmh 30.01 in1016.3 mb - 0.00 in0.0 mm 0.00 in0.0 mm
08:45 AM 67.2°F19.6°C 60.9°F16.1°C 80% 1.6 mph SSE2.6 kmh SSE 2.0 mph3.2 kmh 30.01 in1016.3 mb - 0.00 in0.0 mm 0.00 in0.0 mm
08:30 AM 64.2°F17.9°C 60.6°F15.9°C 88% 1.1 mph SSE1.8 kmh SSE 2.0 mph3.2 kmh 30.01 in1016.3 mb - 0.00 in0.0 mm 0.00 in0.0 mm
08:15 AM 61.3°F16.3°C 59.8°F15.4°C 95% 0.7 mph SE1.1 kmh SE 2.0 mph3.2 kmh 30.02 in1016.6 mb - 0.00 in0.0 mm 0.00 in0.0 mm
08:00 AM 59.1°F15.1°C 58.2°F14.6°C 97% Calm Calm -- 30.02 in1016.6 mb - 0.00 in0.0 mm 0.00 in0.0 mm
07:45 AM 57.0°F13.9°C 56.2°F13.4°C 97% Calm Calm -- 30.02 in1016.6 mb - 0.00 in0.0 mm 0.00 in0.0 mm
07:30 AM 55.3°F12.9°C 54.4°F12.4°C 97% 0.3 mph SE0.5 kmh SE 1.0 mph1.6 kmh 30.03 in1016.9 mb - 0.00 in0.0 mm 0.00 in0.0 mm
07:15 AM 53.1°F11.7°C 52.3°F11.3°C 97% Calm Calm -- 30.02 in1016.6 mb - 0.00 in0.0 mm 0.00 in0.0 mm
07:00 AM 51.3°F10.7°C 50.2°F10.1°C 96% Calm Calm -- 30.02 in1016.6 mb - 0.00 in0.0 mm 0.00 in0.0 mm
06:45 AM 50.6°F10.3°C 49.5°F9.7°C 96% Calm Calm -- 30.03 in1016.9 mb - 0.00 in0.0 mm 0.00 in0.0 mm
06:30 AM 50.0°F10.0°C 48.9°F9.4°C 96% Calm Calm -- 30.03 in1016.9 mb - 0.00 in0.0 mm 0.00 in0.0 mm
06:15 AM 49.6°F9.8°C 48.2°F9.0°C 95% Calm Calm -- 30.03 in1016.9 mb - 0.00 in0.0 mm 0.00 in0.0 mm
06:00 AM 49.2°F9.6°C 47.9°F8.8°C 95% Calm Calm -- 30.04 in1017.3 mb - 0.00 in0.0 mm 0.00 in0.0 mm
05:45 AM 49.1°F9.5°C 47.7°F8.7°C 95% Calm Calm -- 30.03 in1016.9 mb - 0.00 in0.0 mm 0.00 in0.0 mm
05:30 AM 49.0°F9.4°C 47.6°F8.7°C 95% Calm Calm -- 30.02 in1016.6 mb - 0.00 in0.0 mm 0.00 in0.0 mm
05:15 AM 49.0°F9.4°C 47.3°F8.5°C 94% Calm Calm -- 30.03 in1016.9 mb - 0.00 in0.0 mm 0.00 in0.0 mm
05:00 AM 49.0°F9.4°C 47.3°F8.5°C 94% Calm Calm -- 30.03 in1016.9 mb - 0.00 in0.0 mm 0.00 in0.0 mm
04:45 AM 49.1°F9.5°C 47.4°F8.6°C 94% Calm Calm -- 30.03 in1016.9 mb - 0.00 in0.0 mm 0.00 in0.0 mm
04:30 AM 49.2°F9.6°C 47.5°F8.6°C 94% Calm Calm -- 30.03 in1016.9 mb - 0.00 in0.0 mm 0.00 in0.0 mm
04:15 AM 49.4°F9.7°C 47.5°F8.6°C 93% Calm Calm -- 30.03 in1016.9 mb - 0.00 in0.0 mm 0.00 in0.0 mm
04:00 AM 49.6°F9.8°C 47.9°F8.8°C 94% Calm Calm -- 30.03 in1016.9 mb - 0.00 in0.0 mm 0.00 in0.0 mm
03:45 AM 49.7°F9.8°C 47.8°F8.8°C 93% Calm Calm -- 30.04 in1017.3 mb - 0.00 in0.0 mm 0.00 in0.0 mm
03:30 AM 49.9°F9.9°C 48.0°F8.9°C 93% Calm Calm -- 30.04 in1017.3 mb - 0.00 in0.0 mm 0.00 in0.0 mm
03:15 AM 50.1°F10.1°C 48.2°F9.0°C 93% Calm Calm -- 30.04 in1017.3 mb - 0.00 in0.0 mm 0.00 in0.0 mm
03:00 AM 50.2°F10.1°C 48.3°F9.1°C 93% Calm Calm -- 30.05 in1017.6 mb - 0.00 in0.0 mm 0.00 in0.0 mm
02:45 AM 50.3°F10.2°C 48.4°F9.1°C 93% Calm Calm -- 30.05 in1017.6 mb - 0.00 in0.0 mm 0.00 in0.0 mm
02:30 AM 50.2°F10.1°C 48.0°F8.9°C 92% Calm Calm -- 30.06 in1017.9 mb - 0.00 in0.0 mm 0.00 in0.0 mm
02:15 AM 50.4°F10.2°C 47.9°F8.8°C 91% Calm Calm -- 30.06 in1017.9 mb - 0.00 in0.0 mm 0.00 in0.0 mm
02:00 AM 50.7°F10.4°C 48.2°F9.0°C 91% Calm Calm -- 30.06 in1017.9 mb - 0.00 in0.0 mm 0.00 in0.0 mm
01:45 AM 50.9°F10.5°C 48.4°F9.1°C 91% Calm Calm -- 30.07 in1018.3 mb - 0.00 in0.0 mm 0.00 in0.0 mm
01:30 AM 51.3°F10.7°C 48.4°F9.1°C 90% Calm Calm -- 30.07 in1018.3 mb - 0.00 in0.0 mm 0.00 in0.0 mm
01:15 AM 51.6°F10.9°C 48.8°F9.3°C 90% Calm Calm -- 30.07 in1018.3 mb - 0.00 in0.0 mm 0.00 in0.0 mm
01:00 AM 51.9°F11.1°C 48.8°F9.3°C 89% Calm Calm -- 30.08 in1018.6 mb - 0.00 in0.0 mm 0.00 in0.0 mm
12:45 AM 52.5°F11.4°C 49.3°F9.6°C 89% Calm Calm -- 30.08 in1018.6 mb - 0.00 in0.0 mm 0.00 in0.0 mm
12:30 AM 53.0°F11.7°C 50.1°F10.1°C 90% Calm Calm -- 30.09 in1019.0 mb - 0.00 in0.0 mm 0.00 in0.0 mm
12:15 AM 53.4°F11.9°C 50.5°F10.3°C 90% Calm Calm -- 30.09 in1019.0 mb - 0.00 in0.0 mm 0.00 in0.0 mm
12:00 AM 53.9°F12.2°C 51.0°F10.6°C 90% Calm Calm -- 30.09 in1019.0 mb - 0.00 in0.0 mm 0.00 in0.0 mm